createdAt,value
2024-05-09T00:00:35.839Z,102283.44
2024-05-09T00:03:10.939Z,102292.47
2024-05-09T00:05:42.030Z,102286.63
2024-05-09T00:08:10.564Z,102285.22
2024-05-09T00:10:39.252Z,102270.84
2024-05-09T00:13:07.781Z,102278.00
2024-05-09T00:15:35.545Z,102251.19
2024-05-09T00:18:03.376Z,102279.13
2024-05-09T00:20:37.639Z,102275.81
2024-05-09T00:23:07.878Z,102276.94
2024-05-09T00:25:35.494Z,102280.53
2024-05-09T00:28:02.556Z,102276.38
2024-05-09T00:30:34.435Z,102274.88
2024-05-09T00:33:08.157Z,102267.25
2024-05-09T00:35:36.346Z,102272.47
2024-05-09T00:38:03.623Z,102262.16
2024-05-09T00:40:40.555Z,102263.97
2024-05-09T00:43:14.182Z,102258.97
2024-05-09T00:45:42.025Z,102252.44
2024-05-09T00:48:11.070Z,102272.03
2024-05-09T00:50:41.912Z,102279.94
2024-05-09T00:53:14.512Z,102245.88
2024-05-09T00:55:42.037Z,102279.94
2024-05-09T00:58:12.321Z,102284.41
2024-05-09T01:00:41.411Z,102271.53
2024-05-09T01:03:11.691Z,102271.59
2024-05-09T01:05:40.595Z,102258.34
2024-05-09T01:08:08.039Z,102273.28
2024-05-09T01:10:36.294Z,102243.72
2024-05-09T01:13:04.613Z,102274.28
2024-05-09T01:15:31.482Z,102270.16
2024-05-09T01:18:01.013Z,102281.38
2024-05-09T01:20:37.469Z,102257.34
2024-05-09T01:23:09.996Z,102272.75
2024-05-09T01:25:37.098Z,102250.81
2024-05-09T01:28:04.032Z,102263.06
2024-05-09T01:30:35.326Z,102257.84
2024-05-09T01:33:06.158Z,102259.59
2024-05-09T01:35:34.489Z,102251.94
2024-05-09T01:38:01.349Z,102254.63
2024-05-09T01:40:36.836Z,102238.66
2024-05-09T01:43:06.295Z,102254.03
2024-05-09T01:45:33.085Z,102247.13
2024-05-09T01:48:00.126Z,102226.84
2024-05-09T01:50:36.975Z,102248.06
2024-05-09T01:53:07.691Z,102255.19
2024-05-09T01:55:34.516Z,102250.97
2024-05-09T01:58:01.224Z,102247.69
2024-05-09T02:00:37.968Z,102237.53
2024-05-09T02:03:15.710Z,102251.38
2024-05-09T02:05:49.625Z,102240.25
2024-05-09T02:08:21.549Z,102250.69
2024-05-09T02:10:50.132Z,102245.38
2024-05-09T02:13:17.371Z,102231.16
2024-05-09T02:15:44.409Z,102247.47
2024-05-09T02:18:11.700Z,102244.00
2024-05-09T02:20:40.807Z,102244.16
2024-05-09T02:23:08.958Z,102245.09
2024-05-09T02:25:35.755Z,102245.31
2024-05-09T02:28:02.754Z,102246.84
2024-05-09T02:30:38.561Z,102250.25
2024-05-09T02:33:09.843Z,102251.91
2024-05-09T02:35:38.520Z,102250.38
2024-05-09T02:38:05.382Z,102252.97
2024-05-09T02:40:37.236Z,102249.78
2024-05-09T02:43:06.847Z,102251.47
2024-05-09T02:45:33.685Z,102250.53
2024-05-09T02:48:01.549Z,102234.13
2024-05-09T02:50:34.344Z,102246.41
2024-05-09T02:53:05.685Z,102221.13
2024-05-09T02:55:32.698Z,102250.38
2024-05-09T02:57:59.520Z,102243.56
2024-05-09T03:00:34.817Z,102235.97
2024-05-09T03:03:08.526Z,102236.88
2024-05-09T03:05:36.499Z,102225.91
2024-05-09T03:08:03.611Z,102237.78
2024-05-09T03:10:35.879Z,102230.94
2024-05-09T03:13:09.158Z,102228.44
2024-05-09T03:15:36.321Z,102238.78
2024-05-09T03:18:03.770Z,102229.44
2024-05-09T03:20:34.613Z,102196.59
2024-05-09T03:23:04.079Z,102222.81
2024-05-09T03:25:31.101Z,102233.94
2024-05-09T03:27:57.751Z,102231.41
2024-05-09T03:30:36.657Z,102236.56
2024-05-09T03:33:17.676Z,102195.91
2024-05-09T03:35:46.093Z,102232.25
2024-05-09T03:38:13.039Z,102239.47
2024-05-09T03:40:46.476Z,102218.06
2024-05-09T03:43:13.984Z,102232.03
2024-05-09T03:45:40.718Z,102236.38
2024-05-09T03:48:08.319Z,102234.84
2024-05-09T03:50:36.418Z,102218.66
2024-05-09T03:53:04.331Z,102224.94
2024-05-09T03:55:31.325Z,102199.69
2024-05-09T03:57:58.272Z,102207.72
2024-05-09T04:00:31.559Z,102232.06
2024-05-09T04:03:06.208Z,102224.56
2024-05-09T04:05:35.010Z,102236.56
2024-05-09T04:08:02.026Z,102237.38
2024-05-09T04:10:33.544Z,102236.56
2024-05-09T04:13:02.041Z,102234.88
2024-05-09T04:15:28.922Z,102234.88
2024-05-09T04:17:56.141Z,102234.97
2024-05-09T04:20:33.648Z,102242.81
2024-05-09T04:23:06.340Z,102241.88
2024-05-09T04:25:33.428Z,102240.97
2024-05-09T04:28:00.083Z,102240.19
2024-05-09T04:30:36.010Z,102241.13
2024-05-09T04:33:08.122Z,102237.50
2024-05-09T04:35:36.845Z,102219.78
2024-05-09T04:38:03.951Z,102238.34
2024-05-09T04:40:34.411Z,102228.00
2024-05-09T04:43:07.596Z,102227.88
2024-05-09T04:45:34.532Z,102230.16
2024-05-09T04:48:02.151Z,102233.47
2024-05-09T04:50:35.680Z,102240.00
2024-05-09T04:53:06.336Z,102227.97
2024-05-09T04:55:33.897Z,102243.00
2024-05-09T04:58:01.100Z,102235.63
2024-05-09T05:00:35.547Z,102240.41
2024-05-09T05:03:07.348Z,102246.78
2024-05-09T05:05:40.702Z,102231.63
2024-05-09T05:08:12.345Z,102240.31
2024-05-09T05:10:39.146Z,102217.06
2024-05-09T05:13:22.643Z,102244.09
2024-05-09T05:15:57.415Z,102254.44
2024-05-09T05:18:28.797Z,102221.97
2024-05-09T05:20:56.333Z,102254.66
2024-05-09T05:23:23.854Z,102251.16
2024-05-09T05:25:55.176Z,102251.03
2024-05-09T05:28:22.476Z,102254.56
2024-05-09T05:30:49.268Z,102249.38
2024-05-09T05:33:18.558Z,102260.22
2024-05-09T05:35:45.828Z,102258.97
2024-05-09T05:38:12.564Z,102254.16
2024-05-09T05:40:40.540Z,102258.06
2024-05-09T05:43:10.423Z,102241.72
2024-05-09T05:45:37.891Z,102270.63
2024-05-09T05:48:06.251Z,102276.88
2024-05-09T05:50:36.656Z,102267.00
2024-05-09T05:53:10.020Z,102272.78
2024-05-09T05:55:39.170Z,102266.19
2024-05-09T05:58:09.607Z,102260.84
2024-05-09T06:00:39.192Z,102259.88
2024-05-09T06:03:12.670Z,102247.22
2024-05-09T06:05:40.757Z,102272.00
2024-05-09T06:08:08.380Z,102251.31
2024-05-09T06:10:39.093Z,102264.69
2024-05-09T06:13:10.416Z,102268.81
2024-05-09T06:15:37.190Z,102268.75
2024-05-09T06:18:11.682Z,102274.06
2024-05-09T06:20:40.397Z,102262.69
2024-05-09T06:23:08.202Z,102270.38
2024-05-09T06:25:36.088Z,102262.38
2024-05-09T06:28:03.055Z,102271.25
2024-05-09T06:30:37.455Z,102260.81
2024-05-09T06:33:07.851Z,102268.03
2024-05-09T06:35:35.325Z,102251.00
2024-05-09T06:38:02.479Z,102266.44
2024-05-09T06:40:37.107Z,102260.78
2024-05-09T06:43:13.702Z,102250.88
2024-05-09T06:45:40.597Z,102265.59
2024-05-09T06:48:08.353Z,102268.13
2024-05-09T06:50:38.004Z,102269.84
2024-05-09T06:53:06.436Z,102265.59
2024-05-09T06:55:33.187Z,102270.78
2024-05-09T06:57:59.873Z,102277.25
2024-05-09T07:00:34.643Z,102276.13
2024-05-09T07:03:17.122Z,102262.91
2024-05-09T07:05:46.798Z,102268.63
2024-05-09T07:08:14.679Z,102260.84
2024-05-09T07:10:41.469Z,102262.16
2024-05-09T07:13:12.840Z,102277.66
2024-05-09T07:15:40.515Z,102237.00
2024-05-09T07:18:18.336Z,102274.91
2024-05-09T07:20:46.901Z,102277.31
2024-05-09T07:23:14.098Z,102272.09
2024-05-09T07:25:41.776Z,102266.75
2024-05-09T07:28:19.270Z,102273.81
2024-05-09T07:30:46.169Z,102279.44
2024-05-09T07:33:21.943Z,102277.84
2024-05-09T07:35:50.041Z,102271.88
2024-05-09T07:38:16.840Z,102273.66
2024-05-09T07:40:43.602Z,102272.31
2024-05-09T07:43:14.461Z,102272.31
2024-05-09T07:45:50.701Z,102269.13
2024-05-09T07:53:38.838Z,102264.00
2024-05-09T07:56:09.390Z,102268.50
2024-05-09T07:58:36.839Z,102214.81
2024-05-09T08:01:03.916Z,102239.72
2024-05-09T08:03:31.194Z,102251.91
2024-05-09T08:05:58.002Z,102277.94
2024-05-09T08:08:24.613Z,102272.16
2024-05-09T08:10:52.027Z,102263.19
2024-05-09T08:13:18.907Z,102261.06
2024-05-09T08:15:45.728Z,102259.41
2024-05-09T08:18:12.745Z,102256.25
2024-05-09T08:20:41.218Z,102255.88
2024-05-09T08:23:07.927Z,102259.34
2024-05-09T08:25:34.520Z,102259.47
2024-05-09T08:28:01.330Z,102255.44
2024-05-09T08:30:33.738Z,102256.75
2024-05-09T08:33:04.963Z,102236.66
2024-05-09T08:35:32.590Z,102252.00
2024-05-09T08:37:59.402Z,102256.38
2024-05-09T08:40:34.047Z,102252.16
2024-05-09T08:43:12.677Z,102251.84
2024-05-09T08:45:44.759Z,102250.09
2024-05-09T08:48:14.807Z,102248.72
2024-05-09T08:50:43.193Z,102236.81
2024-05-09T08:53:10.289Z,102245.00
2024-05-09T08:55:40.591Z,102237.28
2024-05-09T08:58:14.343Z,102247.47
2024-05-09T09:00:43.156Z,102245.56
2024-05-09T09:03:12.840Z,102252.66
2024-05-09T09:05:42.166Z,102247.28
2024-05-09T09:08:09.104Z,102239.47
2024-05-09T09:10:39.635Z,102223.97
2024-05-09T09:13:09.578Z,102240.47
2024-05-09T09:15:50.289Z,102236.00
2024-05-09T09:18:18.671Z,102244.34
2024-05-09T09:20:45.861Z,102236.78
2024-05-09T09:23:12.653Z,102239.16
2024-05-09T09:25:40.717Z,102240.97
2024-05-09T09:28:08.368Z,102206.00
2024-05-09T09:30:38.396Z,102242.81
2024-05-09T09:33:06.066Z,102240.47
2024-05-09T09:35:33.136Z,102232.69
2024-05-09T09:38:04.635Z,102235.19
2024-05-09T09:40:37.537Z,102236.81
2024-05-09T09:43:14.575Z,102215.09
2024-05-09T09:45:43.236Z,102225.50
2024-05-09T09:48:12.111Z,102234.28
2024-05-09T09:50:40.270Z,102223.59
2024-05-09T09:53:07.918Z,102218.22
2024-05-09T09:55:35.685Z,102223.53
2024-05-09T09:58:04.835Z,102226.53
2024-05-09T10:00:34.300Z,102218.50
2024-05-09T10:03:01.979Z,102215.25
2024-05-09T10:05:30.026Z,102218.50
2024-05-09T10:07:59.189Z,102217.75
2024-05-09T10:10:31.666Z,102209.25
2024-05-09T10:13:07.497Z,102219.16
2024-05-09T10:15:50.384Z,102213.09
2024-05-09T10:18:17.687Z,102206.13
2024-05-09T10:20:45.527Z,102198.63
2024-05-09T10:23:28.955Z,102205.97
2024-05-09T10:26:01.975Z,102192.38
2024-05-09T10:28:29.797Z,102201.59
2024-05-09T10:31:10.475Z,102198.13
2024-05-09T10:33:48.911Z,102202.03
2024-05-09T10:36:18.969Z,102190.97
2024-05-09T10:38:45.670Z,102192.31
2024-05-09T10:41:12.445Z,102171.66
2024-05-09T10:43:40.924Z,102173.31
2024-05-09T10:46:08.899Z,102182.56
2024-05-09T10:48:40.019Z,102187.50
2024-05-09T10:51:07.723Z,102181.25
2024-05-09T10:53:41.675Z,102129.94
2024-05-09T10:56:09.021Z,102178.81
2024-05-09T10:58:35.756Z,102172.84
2024-05-09T11:01:05.659Z,102167.25
2024-05-09T11:03:33.821Z,102178.97
2024-05-09T11:06:01.297Z,102171.13
2024-05-09T11:08:28.786Z,102174.03
2024-05-09T11:10:56.611Z,102163.25
2024-05-09T11:13:31.618Z,102168.13
2024-05-09T11:16:02.676Z,102170.06
2024-05-09T11:18:35.104Z,102153.47
2024-05-09T11:21:14.502Z,102147.69
2024-05-09T11:23:41.368Z,102149.25
2024-05-09T11:26:09.184Z,102141.38
2024-05-09T11:28:35.918Z,102138.84
2024-05-09T11:31:07.887Z,102140.66
2024-05-09T11:33:43.631Z,102137.69
2024-05-09T11:36:10.808Z,102138.22
2024-05-09T11:38:37.608Z,102141.34
2024-05-09T11:41:05.518Z,102136.19
2024-05-09T11:43:32.485Z,102128.84
2024-05-09T11:45:59.907Z,102122.97
2024-05-09T11:48:27.022Z,102118.31
2024-05-09T11:50:55.073Z,102122.97
2024-05-09T11:53:21.832Z,102118.94
2024-05-09T11:55:48.662Z,102102.50
2024-05-09T11:58:17.815Z,102110.59
2024-05-09T12:00:45.322Z,102110.47
2024-05-09T12:03:12.296Z,102118.50
2024-05-09T12:05:39.114Z,102113.09
2024-05-09T12:08:06.479Z,102105.63
2024-05-09T12:10:35.604Z,102110.25
2024-05-09T12:13:05.251Z,102105.25
2024-05-09T12:15:34.053Z,102106.44
2024-05-09T12:18:03.614Z,102080.97
2024-05-09T12:20:36.848Z,102094.28
2024-05-09T12:23:06.052Z,102098.44
2024-05-09T12:25:32.906Z,102102.22
2024-05-09T12:27:59.984Z,102097.19
2024-05-09T12:30:35.454Z,102085.28
2024-05-09T12:33:06.161Z,102100.94
2024-05-09T12:35:33.209Z,102095.81
2024-05-09T12:38:00.152Z,102079.84
2024-05-09T12:40:35.185Z,102083.91
2024-05-09T12:43:05.367Z,102079.78
2024-05-09T12:45:32.357Z,102074.44
2024-05-09T12:47:59.375Z,102076.63
2024-05-09T12:50:32.309Z,102072.78
2024-05-09T12:53:01.333Z,102070.22
2024-05-09T12:55:29.766Z,102060.63
2024-05-09T12:57:58.605Z,102061.75
2024-05-09T13:00:31.700Z,102059.41
2024-05-09T13:03:01.212Z,102059.03
2024-05-09T13:05:28.601Z,102046.81
2024-05-09T13:07:56.808Z,102040.81
2024-05-09T13:10:31.196Z,102053.50
2024-05-09T13:13:00.490Z,102051.84
2024-05-09T13:15:27.711Z,102050.09
2024-05-09T13:17:57.014Z,102029.59
2024-05-09T13:20:31.784Z,102050.03
2024-05-09T13:23:02.324Z,102046.19
2024-05-09T13:25:29.297Z,102039.13
2024-05-09T13:27:56.836Z,102038.81
2024-05-09T13:30:29.832Z,102013.47
2024-05-09T13:33:05.621Z,102033.38
2024-05-09T13:35:34.474Z,102041.28
2024-05-09T13:38:02.209Z,102033.38
2024-05-09T13:40:33.744Z,102028.63
2024-05-09T13:43:03.579Z,102023.09
2024-05-09T13:45:30.490Z,102027.25
2024-05-09T13:47:57.707Z,102021.44
2024-05-09T13:50:33.076Z,102027.56
2024-05-09T13:53:02.928Z,102019.00
2024-05-09T13:55:29.635Z,102018.25
2024-05-09T13:57:56.744Z,102019.44
2024-05-09T14:00:37.745Z,102006.16
2024-05-09T14:03:10.375Z,102001.78
2024-05-09T14:05:37.239Z,102003.91
2024-05-09T14:08:04.370Z,101998.78
2024-05-09T14:10:32.411Z,101981.03
2024-05-09T14:13:01.152Z,102001.41
2024-05-09T14:15:28.146Z,101996.06
2024-05-09T14:17:55.449Z,101974.38
2024-05-09T14:20:30.421Z,101988.28
2024-05-09T14:22:59.554Z,101984.97
2024-05-09T14:25:31.866Z,101981.28
2024-05-09T14:27:58.894Z,101987.84
2024-05-09T14:30:34.211Z,101972.41
2024-05-09T14:33:05.896Z,101976.41
2024-05-09T14:35:33.342Z,101950.78
2024-05-09T14:38:00.126Z,101967.75
2024-05-09T14:40:37.159Z,101958.59
2024-05-09T14:43:09.794Z,101936.78
2024-05-09T14:45:36.581Z,101957.16
2024-05-09T14:48:04.091Z,101955.66
2024-05-09T14:50:36.236Z,101949.13
2024-05-09T14:53:06.755Z,101956.44
2024-05-09T14:55:39.661Z,101957.88
2024-05-09T14:58:08.647Z,101941.38
2024-05-09T15:00:40.126Z,101954.38
2024-05-09T15:03:09.115Z,101950.16
2024-05-09T15:05:35.954Z,101951.44
2024-05-09T15:08:06.069Z,101931.38
2024-05-09T15:10:35.762Z,101951.91
2024-05-09T15:13:04.060Z,101945.94
2024-05-09T15:15:31.315Z,101932.44
2024-05-09T15:17:58.975Z,101935.31
2024-05-09T15:20:33.119Z,101937.41
2024-05-09T15:23:02.787Z,101916.59
2024-05-09T15:25:29.726Z,101938.25
2024-05-09T15:27:56.695Z,101932.34
2024-05-09T15:30:30.590Z,101902.88
2024-05-09T15:33:00.066Z,101924.75
2024-05-09T15:35:27.052Z,101921.31
2024-05-09T15:37:53.891Z,101918.22
2024-05-09T15:40:30.564Z,101914.72
2024-05-09T15:43:04.629Z,101918.81
2024-05-09T15:45:31.895Z,101915.41
2024-05-09T15:47:58.980Z,101907.81
2024-05-09T15:50:35.547Z,101914.88
2024-05-09T15:53:06.687Z,101915.09
2024-05-09T15:55:34.489Z,101910.16
2024-05-09T15:58:02.677Z,101912.03
2024-05-09T16:00:37.371Z,101891.13
2024-05-09T16:03:08.234Z,101887.50
2024-05-09T16:05:35.249Z,101914.13
2024-05-09T16:08:02.605Z,101915.47
2024-05-09T16:10:32.961Z,101912.03
2024-05-09T16:13:01.791Z,101888.94
2024-05-09T16:15:28.959Z,101917.22
2024-05-09T16:17:56.126Z,101909.75
2024-05-09T16:20:34.200Z,101906.59
2024-05-09T16:23:06.521Z,101905.13
2024-05-09T16:25:33.226Z,101861.69
2024-05-09T16:28:00.184Z,101907.28
2024-05-09T16:30:31.908Z,101904.63
2024-05-09T16:33:02.218Z,101908.78
2024-05-09T16:35:29.158Z,101899.97
2024-05-09T16:37:55.793Z,101890.63
2024-05-09T16:40:30.211Z,101889.97
2024-05-09T16:43:04.829Z,101900.94
2024-05-09T16:45:31.852Z,101886.13
2024-05-09T16:48:00.255Z,101881.31
2024-05-09T16:50:32.507Z,101867.84
2024-05-09T16:53:01.270Z,101883.81
2024-05-09T16:55:27.964Z,101883.31
2024-05-09T16:57:56.344Z,101829.09
2024-05-09T17:00:34.860Z,101885.31
2024-05-09T17:03:07.759Z,101880.63
2024-05-09T17:05:35.702Z,101889.63
2024-05-09T17:08:03.112Z,101887.44
2024-05-09T17:10:33.548Z,101873.66
2024-05-09T17:13:03.206Z,101856.38
2024-05-09T17:15:30.994Z,101877.97
2024-05-09T17:17:58.088Z,101889.44
2024-05-09T17:20:31.870Z,101882.63
2024-05-09T17:23:03.042Z,101879.47
2024-05-09T17:25:29.940Z,101881.97
2024-05-09T17:27:57.160Z,101886.63
2024-05-09T17:30:32.089Z,101858.69
2024-05-09T17:33:05.738Z,101882.63
2024-05-09T17:35:32.619Z,101875.47
2024-05-09T17:37:59.802Z,101879.44
2024-05-09T17:40:32.753Z,101878.63
2024-05-09T17:43:03.338Z,101869.28
2024-05-09T17:45:30.711Z,101870.94
2024-05-09T17:47:58.160Z,101870.63
2024-05-09T17:50:31.461Z,101865.47
2024-05-09T17:53:02.390Z,101869.28
2024-05-09T17:55:29.519Z,101866.44
2024-05-09T17:57:56.307Z,101864.13
2024-05-09T18:00:33.167Z,101870.72
2024-05-09T18:03:05.718Z,101859.03
2024-05-09T18:05:32.949Z,101867.34
2024-05-09T18:08:00.070Z,101862.66
2024-05-09T18:10:33.759Z,101869.81
2024-05-09T18:13:05.647Z,101858.03
2024-05-09T18:15:33.004Z,101873.09
2024-05-09T18:18:00.148Z,101878.56
2024-05-09T18:20:37.048Z,101874.59
2024-05-09T18:23:09.286Z,101874.06
2024-05-09T18:25:35.947Z,101870.06
2024-05-09T18:28:03.506Z,101872.38
2024-05-09T18:30:34.887Z,101879.91
2024-05-09T18:33:04.894Z,101876.59
2024-05-09T18:35:32.751Z,101876.59
2024-05-09T18:37:59.440Z,101879.72
2024-05-09T18:40:33.636Z,101885.50
2024-05-09T18:43:05.620Z,101880.81
2024-05-09T18:45:33.734Z,101888.69
2024-05-09T18:48:00.894Z,101880.00
2024-05-09T18:50:34.390Z,101885.22
2024-05-09T18:53:08.729Z,101885.47
2024-05-09T18:55:35.665Z,101886.53
2024-05-09T18:58:03.516Z,101886.63
2024-05-09T19:00:35.902Z,101892.16
2024-05-09T19:03:09.092Z,101891.56
2024-05-09T19:05:38.260Z,101886.75
2024-05-09T19:08:05.678Z,101900.47
2024-05-09T19:10:34.922Z,101899.78
2024-05-09T19:13:06.867Z,101897.19
2024-05-09T19:15:38.094Z,101877.84
2024-05-09T19:18:05.506Z,101900.22
2024-05-09T19:20:34.942Z,101911.56
2024-05-09T19:23:03.111Z,101907.09
2024-05-09T19:25:29.958Z,101893.94
2024-05-09T19:27:56.663Z,101905.91
2024-05-09T19:30:30.516Z,101904.13
2024-05-09T19:33:05.869Z,101879.06
2024-05-09T19:35:32.931Z,101909.84
2024-05-09T19:37:59.938Z,101910.41
2024-05-09T19:40:31.455Z,101921.38
2024-05-09T19:43:01.373Z,101913.47
2024-05-09T19:45:28.758Z,101924.06
2024-05-09T19:47:55.693Z,101925.31
2024-05-09T19:50:30.975Z,101916.94
2024-05-09T19:53:04.601Z,101925.03
2024-05-09T19:55:31.212Z,101925.56
2024-05-09T19:57:58.938Z,101928.06
2024-05-09T20:00:32.739Z,101925.25
2024-05-09T20:03:02.789Z,101929.69
2024-05-09T20:05:32.470Z,101935.66
2024-05-09T20:07:59.526Z,101924.22
2024-05-09T20:10:31.473Z,101913.16
2024-05-09T20:13:00.420Z,101915.63
2024-05-09T20:15:27.313Z,101928.97
2024-05-09T20:17:54.478Z,101926.88
2024-05-09T20:20:32.101Z,101932.03
2024-05-09T20:23:04.077Z,101940.56
2024-05-09T20:25:30.755Z,101945.44
2024-05-09T20:27:57.546Z,101939.69
2024-05-09T20:30:31.281Z,101911.53
2024-05-09T20:33:01.319Z,101936.88
2024-05-09T20:35:31.977Z,101892.69
2024-05-09T20:37:58.929Z,101937.53
2024-05-09T20:40:31.682Z,101942.09
2024-05-09T20:43:02.154Z,101931.09
2024-05-09T20:45:28.876Z,101947.03
2024-05-09T20:47:55.886Z,101935.69
2024-05-09T20:50:29.300Z,101934.94
2024-05-09T20:53:03.789Z,101935.09
2024-05-09T20:55:30.651Z,101937.97
2024-05-09T20:57:57.660Z,101934.91
2024-05-09T21:00:34.321Z,101935.28
2024-05-09T21:03:07.118Z,101928.56
2024-05-09T21:05:34.788Z,101923.38
2024-05-09T21:08:01.991Z,101932.50
2024-05-09T21:10:32.776Z,101939.34
2024-05-09T21:13:01.399Z,101931.34
2024-05-09T21:15:28.528Z,101928.38
2024-05-09T21:17:55.357Z,101932.34
2024-05-09T21:20:28.749Z,101922.44
2024-05-09T21:22:58.453Z,101929.03
2024-05-09T21:25:25.237Z,101925.22
2024-05-09T21:27:52.101Z,101926.41
2024-05-09T21:30:28.212Z,101928.47
2024-05-09T21:33:04.995Z,101932.53
2024-05-09T21:35:31.976Z,101927.78
2024-05-09T21:37:58.671Z,101927.91
2024-05-09T21:40:31.659Z,101923.84
2024-05-09T21:43:01.709Z,101924.66
2024-05-09T21:45:28.579Z,101923.00
2024-05-09T21:47:55.545Z,101922.03
2024-05-09T21:50:28.376Z,101927.19
2024-05-09T21:53:02.717Z,101922.63
2024-05-09T21:55:30.034Z,101921.81
2024-05-09T21:57:57.126Z,101923.47
2024-05-09T22:00:32.057Z,101920.00
2024-05-09T22:03:03.471Z,101923.47
2024-05-09T22:05:30.607Z,101920.97
2024-05-09T22:07:57.483Z,101924.56
2024-05-09T22:10:30.685Z,101934.13
2024-05-09T22:13:01.161Z,101929.94
2024-05-09T22:15:28.003Z,101929.22
2024-05-09T22:17:57.106Z,101926.97
2024-05-09T22:20:32.959Z,101929.69
2024-05-09T22:23:04.226Z,101937.84
2024-05-09T22:25:32.130Z,101934.38
2024-05-09T22:27:59.408Z,101939.78
2024-05-09T22:30:33.724Z,101942.53
2024-05-09T22:33:05.213Z,101939.03
2024-05-09T22:35:32.185Z,101942.53
2024-05-09T22:37:58.893Z,101946.94
2024-05-09T22:40:37.867Z,101941.22
2024-05-09T22:43:12.451Z,101941.78
2024-05-09T22:45:39.287Z,101946.09
2024-05-09T22:48:06.738Z,101938.69
2024-05-09T22:50:33.940Z,101940.91
2024-05-09T22:53:01.119Z,101947.72
2024-05-09T22:55:27.970Z,101932.03
2024-05-09T22:57:54.714Z,101941.25
2024-05-09T23:00:29.393Z,101944.31
2024-05-09T23:03:02.417Z,101943.97
2024-05-09T23:05:29.788Z,101931.38
2024-05-09T23:07:56.612Z,101934.59
2024-05-09T23:10:31.137Z,101928.94
2024-05-09T23:13:02.529Z,101932.03
2024-05-09T23:15:29.578Z,101928.16
2024-05-09T23:17:57.360Z,101932.81
2024-05-09T23:22:53.959Z,101922.16
2024-05-09T23:25:20.611Z,101928.81
2024-05-09T23:27:47.362Z,101927.34
2024-05-09T23:30:21.936Z,101919.06
2024-05-09T23:32:55.759Z,101916.78
2024-05-09T23:35:22.584Z,101901.69
2024-05-09T23:37:49.219Z,101916.78
2024-05-09T23:40:18.990Z,101912.94
2024-05-09T23:42:49.395Z,101915.06
2024-05-09T23:45:16.208Z,101911.81
2024-05-09T23:47:43.215Z,101920.84
2024-05-09T23:50:16.755Z,101904.59
2024-05-09T23:52:50.122Z,101901.44
2024-05-09T23:55:16.881Z,101911.22
2024-05-09T23:57:43.711Z,101909.75
